sensor_id;sensor_type;location;lat;lon;timestamp;pressure;altitude;pressure_sealevel;temperature;humidity
70902;BME280;58548;47.210;8.618;2023-04-24T00:01:48;93295.13;;;19.37;36.66
70902;BME280;58548;47.210;8.618;2023-04-24T00:04:14;93290.13;;;19.36;36.81
70902;BME280;58548;47.210;8.618;2023-04-24T00:06:43;93365.63;;;19.85;36.77
70902;BME280;58548;47.210;8.618;2023-04-24T00:09:09;93270.00;;;19.35;36.45
70902;BME280;58548;47.210;8.618;2023-04-24T00:11:38;93243.78;;;19.18;36.55
70902;BME280;58548;47.210;8.618;2023-04-24T00:14:06;93272.66;;;19.35;36.47
70902;BME280;58548;47.210;8.618;2023-04-24T00:16:34;93284.53;;;19.37;36.63
70902;BME280;58548;47.210;8.618;2023-04-24T00:19:00;93313.44;;;19.54;36.43
70902;BME280;58548;47.210;8.618;2023-04-24T00:21:29;93303.09;;;19.48;36.50
70902;BME280;58548;47.210;8.618;2023-04-24T00:23:58;93390.53;;;19.94;36.26
70902;BME280;58548;47.210;8.618;2023-04-24T00:26:29;93275.03;;;19.26;36.36
70902;BME280;58548;47.210;8.618;2023-04-24T00:28:55;93281.88;;;19.17;36.25
70902;BME280;58548;47.210;8.618;2023-04-24T00:31:20;93275.00;;;19.16;36.61
70902;BME280;58548;47.210;8.618;2023-04-24T00:33:48;93302.00;;;19.33;36.37
70902;BME280;58548;47.210;8.618;2023-04-24T00:36:14;93384.16;;;19.80;36.71
70902;BME280;58548;47.210;8.618;2023-04-24T00:38:47;93378.31;;;19.72;37.13
70902;BME280;58548;47.210;8.618;2023-04-24T00:41:15;93365.34;;;19.71;36.89
70902;BME280;58548;47.210;8.618;2023-04-24T00:43:41;93353.94;;;19.60;36.90
70902;BME280;58548;47.210;8.618;2023-04-24T00:46:10;93279.78;;;19.19;37.35
70902;BME280;58548;47.210;8.618;2023-04-24T00:48:38;93254.88;;;18.99;36.92
70902;BME280;58548;47.210;8.618;2023-04-24T00:51:09;93282.13;;;19.20;37.21
70902;BME280;58548;47.210;8.618;2023-04-24T00:53:35;93284.81;;;19.25;37.28
70902;BME280;58548;47.210;8.618;2023-04-24T00:56:05;93359.22;;;19.70;37.21
70902;BME280;58548;47.210;8.618;2023-04-24T00:58:31;93344.41;;;19.64;36.98
70902;BME280;58548;47.210;8.618;2023-04-24T01:01:02;93376.75;;;19.82;36.25
70902;BME280;58548;47.210;8.618;2023-04-24T01:03:33;93347.06;;;19.59;36.61
70902;BME280;58548;47.210;8.618;2023-04-24T01:05:59;93369.31;;;19.63;36.25
70902;BME280;58548;47.210;8.618;2023-04-24T01:08:31;93360.31;;;19.64;36.36
70902;BME280;58548;47.210;8.618;2023-04-24T01:11:03;93365.84;;;19.63;36.59
70902;BME280;58548;47.210;8.618;2023-04-24T01:13:31;93360.28;;;19.43;36.62
70902;BME280;58548;47.210;8.618;2023-04-24T01:16:02;93375.13;;;19.44;36.67
70902;BME280;58548;47.210;8.618;2023-04-24T01:18:28;93371.41;;;19.40;36.50
70902;BME280;58548;47.210;8.618;2023-04-24T01:21:00;93325.78;;;18.97;36.65
70902;BME280;58548;47.210;8.618;2023-04-24T01:23:33;93299.25;;;18.87;36.58
70902;BME280;58548;47.210;8.618;2023-04-24T01:25:59;93368.72;;;19.35;36.50
70902;BME280;58548;47.210;8.618;2023-04-24T01:28:25;93274.88;;;18.74;37.01
70902;BME280;58548;47.210;8.618;2023-04-24T01:30:54;93277.25;;;18.76;37.11
70902;BME280;58548;47.210;8.618;2023-04-24T01:33:34;93275.97;;;18.78;37.00
70902;BME280;58548;47.210;8.618;2023-04-24T01:36:01;93262.97;;;18.66;37.06
70902;BME280;58548;47.210;8.618;2023-04-24T01:38:27;93373.50;;;19.38;36.73
70902;BME280;58548;47.210;8.618;2023-04-24T01:40:53;93274.88;;;18.74;37.49
70902;BME280;58548;47.210;8.618;2023-04-24T01:43:20;93368.97;;;19.28;37.05
70902;BME280;58548;47.210;8.618;2023-04-24T01:45:51;93277.50;;;18.69;37.38
70902;BME280;58548;47.210;8.618;2023-04-24T01:48:16;93370.31;;;19.26;37.44
70902;BME280;58548;47.210;8.618;2023-04-24T01:50:42;93378.25;;;19.31;37.53
70902;BME280;58548;47.210;8.618;2023-04-24T01:53:08;93364.22;;;19.31;37.59
70902;BME280;58548;47.210;8.618;2023-04-24T01:55:37;93373.75;;;19.32;36.70
70902;BME280;58548;47.210;8.618;2023-04-24T01:58:03;93356.91;;;18.90;36.64
70902;BME280;58548;47.210;8.618;2023-04-24T02:00:29;93346.31;;;18.79;37.17
70902;BME280;58548;47.210;8.618;2023-04-24T02:02:55;93380.78;;;18.95;37.03
70902;BME280;58548;47.210;8.618;2023-04-24T02:05:24;93290.63;;;18.38;37.21
70902;BME280;58548;47.210;8.618;2023-04-24T02:07:50;93298.00;;;18.36;36.84
70902;BME280;58548;47.210;8.618;2023-04-24T02:10:18;93360.78;;;18.61;37.14
70902;BME280;58548;47.210;8.618;2023-04-24T02:12:48;93344.56;;;18.42;37.01
70902;BME280;58548;47.210;8.618;2023-04-24T02:15:16;93379.03;;;18.63;37.08
70902;BME280;58548;47.210;8.618;2023-04-24T02:17:43;93279.75;;;17.91;37.51
70902;BME280;58548;47.210;8.618;2023-04-24T02:20:09;93281.81;;;17.84;37.04
70902;BME280;58548;47.210;8.618;2023-04-24T02:22:38;93376.88;;;18.54;36.87
70902;BME280;58548;47.210;8.618;2023-04-24T02:25:06;93345.53;;;18.31;36.76
70902;BME280;58548;47.210;8.618;2023-04-24T02:27:33;93370.47;;;18.40;36.72
70902;BME280;58548;47.210;8.618;2023-04-24T02:30:01;93269.84;;;17.71;36.78
70902;BME280;58548;47.210;8.618;2023-04-24T02:32:28;93276.53;;;17.79;36.86
70902;BME280;58548;47.210;8.618;2023-04-24T02:34:56;93260.09;;;17.72;36.40
70902;BME280;58548;47.210;8.618;2023-04-24T02:37:25;93376.06;;;18.54;37.04
70902;BME280;58548;47.210;8.618;2023-04-24T02:39:50;93374.50;;;18.53;36.18
70902;BME280;58548;47.210;8.618;2023-04-24T02:42:16;93362.78;;;18.38;35.96
70902;BME280;58548;47.210;8.618;2023-04-24T02:44:47;93298.78;;;17.93;36.54
70902;BME280;58548;47.210;8.618;2023-04-24T02:47:15;93291.09;;;17.92;36.51
70902;BME280;58548;47.210;8.618;2023-04-24T02:49:43;93370.47;;;18.40;36.49
70902;BME280;58548;47.210;8.618;2023-04-24T02:52:09;93344.97;;;18.23;36.71
70902;BME280;58548;47.210;8.618;2023-04-24T02:54:36;93276.53;;;17.84;36.26
70902;BME280;58548;47.210;8.618;2023-04-24T02:57:01;93348.19;;;18.31;36.10
70902;BME280;58548;47.210;8.618;2023-04-24T02:59:28;93381.31;;;18.44;36.02
70902;BME280;58548;47.210;8.618;2023-04-24T03:01:57;93358.06;;;18.46;35.72
70902;BME280;58548;47.210;8.618;2023-04-24T03:04:25;93340.84;;;18.43;35.76
70902;BME280;58548;47.210;8.618;2023-04-24T03:06:52;93360.97;;;18.49;35.95
70902;BME280;58548;47.210;8.618;2023-04-24T03:09:21;93357.28;;;18.50;36.32
70902;BME280;58548;47.210;8.618;2023-04-24T03:11:47;93349.34;;;18.50;35.85
70902;BME280;58548;47.210;8.618;2023-04-24T03:14:14;93361.00;;;18.54;35.67
70902;BME280;58548;47.210;8.618;2023-04-24T03:16:42;93265.25;;;17.94;35.85
70902;BME280;58548;47.210;8.618;2023-04-24T03:19:08;93325.50;;;18.35;35.88
70902;BME280;58548;47.210;8.618;2023-04-24T03:21:36;93342.44;;;18.39;35.77
70902;BME280;58548;47.210;8.618;2023-04-24T03:24:09;93244.03;;;17.78;36.02
70902;BME280;58548;47.210;8.618;2023-04-24T03:26:35;93344.53;;;18.37;35.15
70902;BME280;58548;47.210;8.618;2023-04-24T03:29:06;93329.97;;;18.29;35.72
70902;BME280;58548;47.210;8.618;2023-04-24T03:31:31;93346.44;;;18.47;34.84
70902;BME280;58548;47.210;8.618;2023-04-24T03:33:57;93290.72;;;18.05;34.66
70902;BME280;58548;47.210;8.618;2023-04-24T03:36:26;93346.13;;;18.43;34.84
70902;BME280;58548;47.210;8.618;2023-04-24T03:38:53;93344.03;;;18.40;34.78
70902;BME280;58548;47.210;8.618;2023-04-24T03:41:22;93258.06;;;17.84;35.71
70902;BME280;58548;47.210;8.618;2023-04-24T03:43:53;93356.19;;;18.46;35.02
70902;BME280;58548;47.210;8.618;2023-04-24T03:46:18;93345.88;;;18.45;35.59
70902;BME280;58548;47.210;8.618;2023-04-24T03:48:47;93344.03;;;18.40;35.16
70902;BME280;58548;47.210;8.618;2023-04-24T03:51:12;93326.84;;;18.43;34.63
70902;BME280;58548;47.210;8.618;2023-04-24T03:53:38;93355.75;;;18.60;34.88
70902;BME280;58548;47.210;8.618;2023-04-24T03:56:04;93353.66;;;18.67;34.81
70902;BME280;58548;47.210;8.618;2023-04-24T03:58:30;93235.91;;;17.90;34.92
70902;BME280;58548;47.210;8.618;2023-04-24T04:00:58;93320.81;;;18.52;35.02
70902;BME280;58548;47.210;8.618;2023-04-24T04:03:27;93341.47;;;18.66;35.04
70902;BME280;58548;47.210;8.618;2023-04-24T04:05:55;93258.81;;;18.17;34.61
70902;BME280;58548;47.210;8.618;2023-04-24T04:08:21;93346.56;;;18.73;34.43
70902;BME280;58548;47.210;8.618;2023-04-24T04:10:47;93354.78;;;18.81;34.10
70902;BME280;58548;47.210;8.618;2023-04-24T04:13:15;93283.16;;;18.30;34.66
70902;BME280;58548;47.210;8.618;2023-04-24T04:15:41;93259.84;;;18.16;34.04
70902;BME280;58548;47.210;8.618;2023-04-24T04:18:09;93257.22;;;18.16;34.74
70902;BME280;58548;47.210;8.618;2023-04-24T04:20:37;93344.16;;;18.71;34.62
70902;BME280;58548;47.210;8.618;2023-04-24T04:23:05;93347.84;;;18.70;34.18
70902;BME280;58548;47.210;8.618;2023-04-24T04:25:33;93272.56;;;18.24;34.55
70902;BME280;58548;47.210;8.618;2023-04-24T04:28:02;93360.59;;;18.78;34.36
70902;BME280;58548;47.210;8.618;2023-04-24T04:30:30;93366.16;;;18.82;34.31
70902;BME280;58548;47.210;8.618;2023-04-24T04:32:58;93368.56;;;18.83;34.68
70902;BME280;58548;47.210;8.618;2023-04-24T04:35:24;93369.59;;;18.88;34.75
70902;BME280;58548;47.210;8.618;2023-04-24T04:37:52;93346.78;;;18.66;35.09
70902;BME280;58548;47.210;8.618;2023-04-24T04:40:18;93373.84;;;18.83;34.86
70902;BME280;58548;47.210;8.618;2023-04-24T04:42:46;93378.88;;;18.85;34.37
70902;BME280;58548;47.210;8.618;2023-04-24T04:45:17;93357.88;;;18.68;34.99
70902;BME280;58548;47.210;8.618;2023-04-24T04:47:43;93296.16;;;18.31;34.09
70902;BME280;58548;47.210;8.618;2023-04-24T04:50:12;93361.88;;;18.76;34.43
70902;BME280;58548;47.210;8.618;2023-04-24T04:52:38;93289.50;;;18.29;34.63
70902;BME280;58548;47.210;8.618;2023-04-24T04:55:06;93298.47;;;18.28;34.96
70902;BME280;58548;47.210;8.618;2023-04-24T04:57:35;93385.44;;;18.77;34.90
70902;BME280;58548;47.210;8.618;2023-04-24T05:00:01;93299.53;;;18.21;34.69
70902;BME280;58548;47.210;8.618;2023-04-24T05:02:32;93382.00;;;18.77;34.63
70902;BME280;58548;47.210;8.618;2023-04-24T05:04:58;93287.84;;;18.12;34.53
70902;BME280;58548;47.210;8.618;2023-04-24T05:07:26;93310.66;;;18.29;34.65
70902;BME280;58548;47.210;8.618;2023-04-24T05:09:57;93312.75;;;18.21;34.49
70902;BME280;58548;47.210;8.618;2023-04-24T05:12:23;93319.03;;;18.15;34.30
70902;BME280;58548;47.210;8.618;2023-04-24T05:14:48;93416.38;;;18.77;34.58
70902;BME280;58548;47.210;8.618;2023-04-24T05:17:15;93423.25;;;18.73;34.73
70902;BME280;58548;47.210;8.618;2023-04-24T05:19:44;93435.16;;;18.75;35.13
70902;BME280;58548;47.210;8.618;2023-04-24T05:22:12;93335.94;;;18.14;35.36
70902;BME280;58548;47.210;8.618;2023-04-24T05:24:38;93427.50;;;18.74;34.77
70902;BME280;58548;47.210;8.618;2023-04-24T05:27:05;93350.53;;;18.22;34.44
70902;BME280;58548;47.210;8.618;2023-04-24T05:29:31;93456.63;;;18.84;35.05
70902;BME280;58548;47.210;8.618;2023-04-24T05:32:00;93465.38;;;18.84;34.57
70902;BME280;58548;47.210;8.618;2023-04-24T05:34:28;93486.00;;;18.82;35.45
70902;BME280;58548;47.210;8.618;2023-04-24T05:36:56;93460.97;;;18.58;34.58
70902;BME280;58548;47.210;8.618;2023-04-24T05:39:22;93490.75;;;18.80;35.48
70902;BME280;58548;47.210;8.618;2023-04-24T05:41:51;93502.34;;;18.74;35.85
70902;BME280;58548;47.210;8.618;2023-04-24T05:44:16;93504.44;;;18.72;36.16
70902;BME280;58548;47.210;8.618;2023-04-24T05:46:45;93487.41;;;18.58;36.11
70902;BME280;58548;47.210;8.618;2023-04-24T05:49:13;93344.22;;;17.58;35.94
70902;BME280;58548;47.210;8.618;2023-04-24T05:51:41;93517.34;;;18.63;35.82
70902;BME280;58548;47.210;8.618;2023-04-24T05:54:07;93495.81;;;18.49;35.75
70902;BME280;58548;47.210;8.618;2023-04-24T05:56:38;93420.59;;;17.97;36.58
70902;BME280;58548;47.210;8.618;2023-04-24T05:59:04;93513.31;;;18.56;35.90
70902;BME280;58548;47.210;8.618;2023-04-24T06:01:30;93513.81;;;18.52;36.29
70902;BME280;58548;47.210;8.618;2023-04-24T06:03:57;93489.38;;;18.35;36.50
70902;BME280;58548;47.210;8.618;2023-04-24T06:06:29;93426.88;;;17.91;36.51
70902;BME280;58548;47.210;8.618;2023-04-24T06:08:54;93514.81;;;18.46;36.44
70902;BME280;58548;47.210;8.618;2023-04-24T06:11:26;93519.06;;;18.47;35.95
70902;BME280;58548;47.210;8.618;2023-04-24T06:13:51;93519.53;;;18.39;36.14
70902;BME280;58548;47.210;8.618;2023-04-24T06:16:20;93437.16;;;17.87;36.92
70902;BME280;58548;47.210;8.618;2023-04-24T06:18:48;93420.34;;;17.66;36.95
70902;BME280;58548;47.210;8.618;2023-04-24T06:21:17;93521.31;;;18.28;36.36
70902;BME280;58548;47.210;8.618;2023-04-24T06:23:48;93500.81;;;18.13;36.74
70902;BME280;58548;47.210;8.618;2023-04-24T06:26:17;93423.75;;;17.67;37.28
70902;BME280;58548;47.210;8.618;2023-04-24T06:28:46;93446.88;;;17.82;37.15
70902;BME280;58548;47.210;8.618;2023-04-24T06:31:14;93438.75;;;17.88;36.85
70902;BME280;58548;47.210;8.618;2023-04-24T06:33:43;93516.69;;;18.46;37.13
70902;BME280;58548;47.210;8.618;2023-04-24T06:36:14;93433.59;;;17.99;37.10
70902;BME280;58548;47.210;8.618;2023-04-24T06:38:40;93515.47;;;18.59;36.98
70902;BME280;58548;47.210;8.618;2023-04-24T06:41:06;93440.03;;;18.13;36.94
70902;BME280;58548;47.210;8.618;2023-04-24T06:43:31;93495.31;;;18.52;36.28
70902;BME280;58548;47.210;8.618;2023-04-24T06:46:00;93491.16;;;18.62;36.99
70902;BME280;58548;47.210;8.618;2023-04-24T06:48:26;93508.72;;;18.78;36.58
70902;BME280;58548;47.210;8.618;2023-04-24T06:50:56;93438.09;;;18.36;36.85
70902;BME280;58548;47.210;8.618;2023-04-24T06:53:27;93409.34;;;18.07;36.55
70902;BME280;58548;47.210;8.618;2023-04-24T06:55:53;93454.81;;;18.47;36.28
70902;BME280;58548;47.210;8.618;2023-04-24T06:58:21;93493.13;;;18.82;36.50
70902;BME280;58548;47.210;8.618;2023-04-24T07:00:52;93498.13;;;18.78;36.68
70902;BME280;58548;47.210;8.618;2023-04-24T07:03:18;93516.84;;;19.04;36.13
70902;BME280;58548;47.210;8.618;2023-04-24T07:05:43;93524.84;;;19.20;36.37
70902;BME280;58548;47.210;8.618;2023-04-24T07:08:13;93508.94;;;19.14;36.19
70902;BME280;58548;47.210;8.618;2023-04-24T07:10:43;93438.59;;;18.76;36.04
70902;BME280;58548;47.210;8.618;2023-04-24T07:13:09;93495.19;;;19.18;35.82
70902;BME280;58548;47.210;8.618;2023-04-24T07:15:35;93429.91;;;18.80;36.56
70902;BME280;58548;47.210;8.618;2023-04-24T07:18:04;93474.91;;;18.91;36.06
70902;BME280;58548;47.210;8.618;2023-04-24T07:20:34;93534.97;;;19.33;36.80
70902;BME280;58548;47.210;8.618;2023-04-24T07:23:02;93549.28;;;19.37;36.41
70902;BME280;58548;47.210;8.618;2023-04-24T07:25:28;93459.75;;;18.76;35.13
70902;BME280;58548;47.210;8.618;2023-04-24T07:27:54;93568.81;;;19.21;34.93
70902;BME280;58548;47.210;8.618;2023-04-24T07:30:22;93554.78;;;18.88;35.13
70902;BME280;58548;47.210;8.618;2023-04-24T07:32:51;93571.28;;;18.62;35.78
70902;BME280;58548;47.210;8.618;2023-04-24T07:35:17;93472.53;;;17.86;36.15
70902;BME280;58548;47.210;8.618;2023-04-24T07:37:45;93492.06;;;17.85;36.82
70902;BME280;58548;47.210;8.618;2023-04-24T07:40:15;93571.06;;;18.09;36.24
70902;BME280;58548;47.210;8.618;2023-04-24T07:42:43;93579.16;;;17.80;37.23
70902;BME280;58548;47.210;8.618;2023-04-24T07:45:10;93441.47;;;16.77;36.50
70902;BME280;58548;47.210;8.618;2023-04-24T07:47:41;93563.75;;;17.49;36.66
70902;BME280;58548;47.210;8.618;2023-04-24T07:50:11;93564.56;;;17.50;36.28
70902;BME280;58548;47.210;8.618;2023-04-24T07:52:42;93565.97;;;17.58;36.28
70902;BME280;58548;47.210;8.618;2023-04-24T07:55:08;93472.00;;;17.12;36.67
70902;BME280;58548;47.210;8.618;2023-04-24T07:57:34;93542.63;;;17.72;36.03
70902;BME280;58548;47.210;8.618;2023-04-24T08:00:00;93564.38;;;18.01;36.25
70902;BME280;58548;47.210;8.618;2023-04-24T08:02:25;93568.06;;;18.28;36.67
70902;BME280;58548;47.210;8.618;2023-04-24T08:04:55;93453.81;;;17.88;36.98
70902;BME280;58548;47.210;8.618;2023-04-24T08:07:21;93566.41;;;19.19;35.95
70902;BME280;58548;47.210;8.618;2023-04-24T08:09:47;93531.94;;;19.72;36.07
70902;BME280;58548;47.210;8.618;2023-04-24T08:12:15;93489.16;;;20.22;34.98
70902;BME280;58548;47.210;8.618;2023-04-24T08:14:43;93577.13;;;21.69;33.24
70902;BME280;58548;47.210;8.618;2023-04-24T08:17:09;93485.66;;;21.80;31.64
70902;BME280;58548;47.210;8.618;2023-04-24T08:19:35;93491.25;;;22.24;30.71
70902;BME280;58548;47.210;8.618;2023-04-24T08:22:03;93488.84;;;22.62;29.59
70902;BME280;58548;47.210;8.618;2023-04-24T08:24:29;93502.28;;;23.06;30.38
70902;BME280;58548;47.210;8.618;2023-04-24T08:26:58;93590.06;;;23.94;28.36
70902;BME280;58548;47.210;8.618;2023-04-24T08:29:24;93488.28;;;23.87;30.01
70902;BME280;58548;47.210;8.618;2023-04-24T08:31:50;93593.03;;;25.07;27.65
70902;BME280;58548;47.210;8.618;2023-04-24T08:34:16;93574.16;;;25.51;26.82
70902;BME280;58548;47.210;8.618;2023-04-24T08:36:46;93538.59;;;25.64;26.59
70902;BME280;58548;47.210;8.618;2023-04-24T08:39:13;93510.69;;;25.42;24.47
70902;BME280;58548;47.210;8.618;2023-04-24T08:41:42;93530.97;;;25.43;24.92
70902;BME280;58548;47.210;8.618;2023-04-24T08:44:14;93597.44;;;25.92;24.57
70902;BME280;58548;47.210;8.618;2023-04-24T08:46:43;93600.59;;;25.94;25.82
70902;BME280;58548;47.210;8.618;2023-04-24T08:49:14;93540.50;;;25.78;23.23
70902;BME280;58548;47.210;8.618;2023-04-24T08:51:44;93582.88;;;26.26;24.01
70902;BME280;58548;47.210;8.618;2023-04-24T08:54:12;93530.16;;;26.13;22.98
70902;BME280;58548;47.210;8.618;2023-04-24T08:56:44;93616.63;;;26.73;22.24
70902;BME280;58548;47.210;8.618;2023-04-24T08:59:11;93536.59;;;26.12;22.99
70902;BME280;58548;47.210;8.618;2023-04-24T09:01:40;93611.03;;;26.60;23.83
70902;BME280;58548;47.210;8.618;2023-04-24T09:04:08;93607.38;;;26.56;23.01
70902;BME280;58548;47.210;8.618;2023-04-24T09:06:36;93626.75;;;26.76;23.56
70902;BME280;58548;47.210;8.618;2023-04-24T09:09:02;93613.47;;;26.71;22.07
70902;BME280;58548;47.210;8.618;2023-04-24T09:11:34;93578.25;;;26.41;22.55
70902;BME280;58548;47.210;8.618;2023-04-24T09:14:05;93625.97;;;26.75;22.40
70902;BME280;58548;47.210;8.618;2023-04-24T09:16:32;93566.31;;;26.24;22.95
70902;BME280;58548;47.210;8.618;2023-04-24T09:18:58;93638.63;;;26.47;21.90
70902;BME280;58548;47.210;8.618;2023-04-24T09:21:32;93613.56;;;25.87;21.78
70902;BME280;58548;47.210;8.618;2023-04-24T09:24:00;93564.66;;;25.11;21.84
70902;BME280;58548;47.210;8.618;2023-04-24T09:26:31;93571.38;;;24.76;22.11
70902;BME280;58548;47.210;8.618;2023-04-24T09:29:04;93567.06;;;24.22;23.38
70902;BME280;58548;47.210;8.618;2023-04-24T09:31:31;93570.56;;;23.99;23.79
70902;BME280;58548;47.210;8.618;2023-04-24T09:33:59;93665.13;;;24.31;24.19
70902;BME280;58548;47.210;8.618;2023-04-24T09:36:34;93560.56;;;23.37;24.97
70902;BME280;58548;47.210;8.618;2023-04-24T09:39:08;93641.47;;;23.75;25.88
70902;BME280;58548;47.210;8.618;2023-04-24T09:41:34;93658.63;;;23.93;26.22
70902;BME280;58548;47.210;8.618;2023-04-24T09:44:19;93584.56;;;23.85;25.45
70902;BME280;58548;47.210;8.618;2023-04-24T09:46:57;93657.03;;;24.79;25.48
70902;BME280;58548;47.210;8.618;2023-04-24T09:49:28;93648.06;;;25.08;25.05
70902;BME280;58548;47.210;8.618;2023-04-24T09:52:06;93654.34;;;25.51;24.35
70902;BME280;58548;47.210;8.618;2023-04-24T09:54:34;93666.69;;;25.80;24.14
70902;BME280;58548;47.210;8.618;2023-04-24T09:57:02;93585.94;;;25.50;23.95
70902;BME280;58548;47.210;8.618;2023-04-24T09:59:30;93625.84;;;26.02;23.91
70902;BME280;58548;47.210;8.618;2023-04-24T10:01:56;93660.53;;;26.49;23.11
70902;BME280;58548;47.210;8.618;2023-04-24T10:04:26;93665.28;;;26.52;22.59
70902;BME280;58548;47.210;8.618;2023-04-24T10:06:56;93654.38;;;26.48;22.57
70902;BME280;58548;47.210;8.618;2023-04-24T10:09:27;93509.00;;;25.47;22.97
70902;BME280;58548;47.210;8.618;2023-04-24T10:11:55;93651.53;;;26.31;21.73
70902;BME280;58548;47.210;8.618;2023-04-24T10:14:24;93632.19;;;25.92;23.02
70902;BME280;58548;47.210;8.618;2023-04-24T10:16:53;93572.91;;;25.29;23.40
70902;BME280;58548;47.210;8.618;2023-04-24T10:19:19;93626.59;;;25.47;23.26
70902;BME280;58548;47.210;8.618;2023-04-24T10:21:48;93626.69;;;25.41;22.94
70902;BME280;58548;47.210;8.618;2023-04-24T10:24:16;93662.31;;;25.70;22.22
70902;BME280;58548;47.210;8.618;2023-04-24T10:26:43;93658.94;;;25.78;22.61
70902;BME280;58548;47.210;8.618;2023-04-24T10:29:15;93587.94;;;25.25;22.37
70902;BME280;58548;47.210;8.618;2023-04-24T10:31:43;93580.38;;;24.99;22.17
70902;BME280;58548;47.210;8.618;2023-04-24T10:34:15;93660.44;;;25.37;21.55
70902;BME280;58548;47.210;8.618;2023-04-24T10:36:51;93651.31;;;25.05;21.97
70902;BME280;58548;47.210;8.618;2023-04-24T10:39:23;93633.19;;;24.64;21.93
70902;BME280;58548;47.210;8.618;2023-04-24T10:41:50;93673.25;;;24.64;21.51
70902;BME280;58548;47.210;8.618;2023-04-24T10:44:16;93661.75;;;24.44;22.72
70902;BME280;58548;47.210;8.618;2023-04-24T10:46:46;93662.00;;;24.23;21.95
70902;BME280;58548;47.210;8.618;2023-04-24T10:49:31;93591.91;;;23.50;21.07
70902;BME280;58548;47.210;8.618;2023-04-24T10:52:02;93586.69;;;23.34;21.47
70902;BME280;58548;47.210;8.618;2023-04-24T10:54:46;93687.38;;;23.67;22.02
70902;BME280;58548;47.210;8.618;2023-04-24T10:59:44;93684.84;;;23.17;21.07
70902;BME280;58548;47.210;8.618;2023-04-24T11:02:16;93577.63;;;22.32;21.50
70902;BME280;58548;47.210;8.618;2023-04-24T11:04:45;93649.09;;;22.49;21.80
70902;BME280;58548;47.210;8.618;2023-04-24T11:07:15;93593.47;;;22.02;22.27
70902;BME280;58548;47.210;8.618;2023-04-24T11:09:41;93612.09;;;21.97;22.69
70902;BME280;58548;47.210;8.618;2023-04-24T11:12:11;93694.88;;;22.40;22.71
70902;BME280;58548;47.210;8.618;2023-04-24T11:17:37;93662.78;;;22.16;22.95
70902;BME280;58548;47.210;8.618;2023-04-24T11:20:09;93665.28;;;21.97;23.33
70902;BME280;58548;47.210;8.618;2023-04-24T11:22:39;93673.25;;;21.97;23.56
70902;BME280;58548;47.210;8.618;2023-04-24T11:25:09;93578.50;;;21.41;24.03
70902;BME280;58548;47.210;8.618;2023-04-24T11:27:46;93594.38;;;21.72;23.91
70902;BME280;58548;47.210;8.618;2023-04-24T11:30:23;93563.53;;;21.76;23.38
70902;BME280;58548;47.210;8.618;2023-04-24T11:32:51;93565.78;;;22.03;23.21
70902;BME280;58548;47.210;8.618;2023-04-24T11:35:21;93597.03;;;22.32;23.24
70902;BME280;58548;47.210;8.618;2023-04-24T11:37:55;93595.25;;;22.17;22.47
70902;BME280;58548;47.210;8.618;2023-04-24T11:40:26;93695.44;;;22.42;23.12
70902;BME280;58548;47.210;8.618;2023-04-24T11:42:54;93602.09;;;21.73;22.70
70902;BME280;58548;47.210;8.618;2023-04-24T11:47:48;93604.47;;;21.75;23.75
70902;BME280;58548;47.210;8.618;2023-04-24T11:50:17;93593.06;;;21.74;23.53
70902;BME280;58548;47.210;8.618;2023-04-24T11:52:46;93581.19;;;22.11;23.66
70902;BME280;58548;47.210;8.618;2023-04-24T11:57:49;93585.44;;;23.27;22.96
70902;BME280;58548;47.210;8.618;2023-04-24T12:00:21;93631.69;;;24.38;22.53
70902;BME280;58548;47.210;8.618;2023-04-24T12:02:50;93585.31;;;24.53;21.74
70902;BME280;58548;47.210;8.618;2023-04-24T12:05:25;93682.50;;;25.76;23.01
70902;BME280;58548;47.210;8.618;2023-04-24T12:07:52;93597.63;;;25.54;21.01
70902;BME280;58548;47.210;8.618;2023-04-24T12:10:23;93677.63;;;26.25;21.04
70902;BME280;58548;47.210;8.618;2023-04-24T12:12:52;93683.84;;;26.34;21.69
70902;BME280;58548;47.210;8.618;2023-04-24T12:15:21;93598.44;;;25.82;20.76
70902;BME280;58548;47.210;8.618;2023-04-24T12:17:51;93688.22;;;26.30;21.72
70902;BME280;58548;47.210;8.618;2023-04-24T12:20:23;93658.06;;;26.11;22.63
70902;BME280;58548;47.210;8.618;2023-04-24T12:23:01;93613.38;;;25.69;21.70
70902;BME280;58548;47.210;8.618;2023-04-24T12:25:32;93688.34;;;26.25;21.71
70902;BME280;58548;47.210;8.618;2023-04-24T12:30:32;93694.72;;;26.80;22.35
70902;BME280;58548;47.210;8.618;2023-04-24T12:33:04;93607.28;;;26.47;21.89
70902;BME280;58548;47.210;8.618;2023-04-24T12:35:32;93693.13;;;27.16;20.16
70902;BME280;58548;47.210;8.618;2023-04-24T12:38:10;93602.19;;;26.60;20.73
70902;BME280;58548;47.210;8.618;2023-04-24T12:40:38;93620.66;;;26.61;18.91
70902;BME280;58548;47.210;8.618;2023-04-24T12:43:24;93585.41;;;26.31;19.74
70902;BME280;58548;47.210;8.618;2023-04-24T12:45:50;93667.22;;;26.88;18.17
70902;BME280;58548;47.210;8.618;2023-04-24T12:48:16;93591.56;;;26.32;18.71
70902;BME280;58548;47.210;8.618;2023-04-24T12:50:43;93654.13;;;26.73;18.48
70902;BME280;58548;47.210;8.618;2023-04-24T12:53:11;93669.25;;;26.69;18.59
70902;BME280;58548;47.210;8.618;2023-04-24T12:55:39;93603.88;;;26.05;18.45
70902;BME280;58548;47.210;8.618;2023-04-24T12:58:07;93670.88;;;26.42;18.81
70902;BME280;58548;47.210;8.618;2023-04-24T13:00:33;93591.78;;;25.66;17.73
70902;BME280;58548;47.210;8.618;2023-04-24T13:02:59;93682.25;;;26.06;19.36
70902;BME280;58548;47.210;8.618;2023-04-24T13:05:25;93677.19;;;25.90;18.80
70902;BME280;58548;47.210;8.618;2023-04-24T13:07:54;93643.59;;;25.37;18.48
70902;BME280;58548;47.210;8.618;2023-04-24T13:10:20;93675.72;;;25.32;18.95
70902;BME280;58548;47.210;8.618;2023-04-24T13:12:46;93581.28;;;24.75;19.08
70902;BME280;58548;47.210;8.618;2023-04-24T13:15:15;93584.28;;;24.88;19.01
70902;BME280;58548;47.210;8.618;2023-04-24T13:17:40;93677.31;;;25.52;19.74
70902;BME280;58548;47.210;8.618;2023-04-24T13:20:09;93662.88;;;25.53;20.47